sensor_id;sensor_type;location;lat;lon;timestamp;P1;durP1;ratioP1;P2;durP2;ratioP2
37559;SDS011;23398;50.928;7.084;2022-09-01T00:00:23;2.88;;;1.63;;
37559;SDS011;23398;50.928;7.084;2022-09-01T00:02:53;2.13;;;1.50;;
37559;SDS011;23398;50.928;7.084;2022-09-01T00:05:20;2.03;;;1.42;;
37559;SDS011;23398;50.928;7.084;2022-09-01T00:07:46;1.70;;;1.60;;
37559;SDS011;23398;50.928;7.084;2022-09-01T00:10:13;1.80;;;1.52;;
37559;SDS011;23398;50.928;7.084;2022-09-01T00:12:39;1.60;;;1.50;;
37559;SDS011;23398;50.928;7.084;2022-09-01T00:15:05;1.70;;;1.60;;
37559;SDS011;23398;50.928;7.084;2022-09-01T00:17:33;1.60;;;1.50;;
37559;SDS011;23398;50.928;7.084;2022-09-01T00:19:59;2.42;;;1.67;;
37559;SDS011;23398;50.928;7.084;2022-09-01T00:22:24;3.25;;;1.58;;
37559;SDS011;23398;50.928;7.084;2022-09-01T00:24:50;1.65;;;1.55;;
37559;SDS011;23398;50.928;7.084;2022-09-01T00:27:16;1.85;;;1.65;;
37559;SDS011;23398;50.928;7.084;2022-09-01T00:29:42;2.30;;;1.50;;
37559;SDS011;23398;50.928;7.084;2022-09-01T00:32:07;1.60;;;1.45;;
37559;SDS011;23398;50.928;7.084;2022-09-01T00:34:33;2.00;;;1.50;;
37559;SDS011;23398;50.928;7.084;2022-09-01T00:36:59;2.17;;;1.60;;
37559;SDS011;23398;50.928;7.084;2022-09-01T00:39:24;1.73;;;1.58;;
37559;SDS011;23398;50.928;7.084;2022-09-01T00:41:50;1.77;;;1.60;;
37559;SDS011;23398;50.928;7.084;2022-09-01T00:44:17;1.92;;;1.52;;
37559;SDS011;23398;50.928;7.084;2022-09-01T00:46:48;1.58;;;1.45;;
37559;SDS011;23398;50.928;7.084;2022-09-01T00:49:16;1.75;;;1.60;;
37559;SDS011;23398;50.928;7.084;2022-09-01T00:51:50;1.90;;;1.70;;
37559;SDS011;23398;50.928;7.084;2022-09-01T00:54:22;3.00;;;1.63;;
37559;SDS011;23398;50.928;7.084;2022-09-01T00:56:51;1.70;;;1.60;;
37559;SDS011;23398;50.928;7.084;2022-09-01T00:59:19;2.15;;;1.85;;
37559;SDS011;23398;50.928;7.084;2022-09-01T01:01:46;1.80;;;1.60;;
37559;SDS011;23398;50.928;7.084;2022-09-01T01:04:12;1.60;;;1.50;;
37559;SDS011;23398;50.928;7.084;2022-09-01T01:06:42;1.88;;;1.58;;
37559;SDS011;23398;50.928;7.084;2022-09-01T01:09:13;1.70;;;1.60;;
37559;SDS011;23398;50.928;7.084;2022-09-01T01:11:40;1.70;;;1.58;;
37559;SDS011;23398;50.928;7.084;2022-09-01T01:14:09;1.98;;;1.73;;
37559;SDS011;23398;50.928;7.084;2022-09-01T01:16:42;2.13;;;1.70;;
37559;SDS011;23398;50.928;7.084;2022-09-01T01:19:43;1.83;;;1.70;;
37559;SDS011;23398;50.928;7.084;2022-09-01T01:22:33;1.50;;;1.40;;
37559;SDS011;23398;50.928;7.084;2022-09-01T01:25:33;1.80;;;1.70;;
37559;SDS011;23398;50.928;7.084;2022-09-01T01:28:14;2.28;;;1.60;;
37559;SDS011;23398;50.928;7.084;2022-09-01T01:30:52;1.60;;;1.50;;
37559;SDS011;23398;50.928;7.084;2022-09-01T01:33:24;1.92;;;1.63;;
37559;SDS011;23398;50.928;7.084;2022-09-01T01:35:52;4.18;;;1.60;;
37559;SDS011;23398;50.928;7.084;2022-09-01T01:38:21;1.85;;;1.50;;
37559;SDS011;23398;50.928;7.084;2022-09-01T01:40:48;3.15;;;1.50;;
37559;SDS011;23398;50.928;7.084;2022-09-01T01:43:15;3.03;;;2.00;;
37559;SDS011;23398;50.928;7.084;2022-09-01T01:45:44;1.55;;;1.45;;
37559;SDS011;23398;50.928;7.084;2022-09-01T01:48:12;2.03;;;1.60;;
37559;SDS011;23398;50.928;7.084;2022-09-01T01:50:39;1.77;;;1.35;;
37559;SDS011;23398;50.928;7.084;2022-09-01T01:53:07;1.80;;;1.70;;
37559;SDS011;23398;50.928;7.084;2022-09-01T01:55:33;1.70;;;1.60;;
37559;SDS011;23398;50.928;7.084;2022-09-01T01:57:59;3.17;;;2.00;;
37559;SDS011;23398;50.928;7.084;2022-09-01T02:00:29;2.88;;;1.67;;
37559;SDS011;23398;50.928;7.084;2022-09-01T02:02:58;2.22;;;1.58;;
37559;SDS011;23398;50.928;7.084;2022-09-01T02:05:25;2.10;;;1.60;;
37559;SDS011;23398;50.928;7.084;2022-09-01T02:07:57;1.65;;;1.50;;
37559;SDS011;23398;50.928;7.084;2022-09-01T02:10:29;1.65;;;1.55;;
37559;SDS011;23398;50.928;7.084;2022-09-01T02:12:58;1.75;;;1.65;;
37559;SDS011;23398;50.928;7.084;2022-09-01T02:15:27;2.35;;;1.73;;
37559;SDS011;23398;50.928;7.084;2022-09-01T02:18:00;1.85;;;1.70;;
37559;SDS011;23398;50.928;7.084;2022-09-01T02:20:26;1.90;;;1.52;;
37559;SDS011;23398;50.928;7.084;2022-09-01T02:22:56;1.45;;;1.35;;
37559;SDS011;23398;50.928;7.084;2022-09-01T02:25:24;2.00;;;1.73;;
37559;SDS011;23398;50.928;7.084;2022-09-01T02:27:51;1.80;;;1.70;;
37559;SDS011;23398;50.928;7.084;2022-09-01T02:30:19;1.85;;;1.48;;
37559;SDS011;23398;50.928;7.084;2022-09-01T02:32:48;1.90;;;1.67;;
37559;SDS011;23398;50.928;7.084;2022-09-01T02:35:14;1.70;;;1.60;;
37559;SDS011;23398;50.928;7.084;2022-09-01T02:37:40;2.92;;;1.63;;
37559;SDS011;23398;50.928;7.084;2022-09-01T02:40:07;2.63;;;1.50;;
37559;SDS011;23398;50.928;7.084;2022-09-01T02:42:37;1.70;;;1.60;;
37559;SDS011;23398;50.928;7.084;2022-09-01T02:45:07;1.60;;;1.50;;
37559;SDS011;23398;50.928;7.084;2022-09-01T02:47:36;1.70;;;1.60;;
37559;SDS011;23398;50.928;7.084;2022-09-01T02:50:06;1.70;;;1.60;;
37559;SDS011;23398;50.928;7.084;2022-09-01T02:52:37;2.55;;;1.50;;
37559;SDS011;23398;50.928;7.084;2022-09-01T02:55:04;2.45;;;1.40;;
37559;SDS011;23398;50.928;7.084;2022-09-01T02:57:31;1.70;;;1.60;;
37559;SDS011;23398;50.928;7.084;2022-09-01T02:59:58;1.65;;;1.55;;
37559;SDS011;23398;50.928;7.084;2022-09-01T03:02:24;1.90;;;1.40;;
37559;SDS011;23398;50.928;7.084;2022-09-01T03:04:53;3.10;;;1.70;;
37559;SDS011;23398;50.928;7.084;2022-09-01T03:07:22;2.92;;;1.38;;
37559;SDS011;23398;50.928;7.084;2022-09-01T03:09:49;1.55;;;1.45;;
37559;SDS011;23398;50.928;7.084;2022-09-01T03:12:16;1.50;;;1.40;;
37559;SDS011;23398;50.928;7.084;2022-09-01T03:14:43;2.03;;;1.35;;
37559;SDS011;23398;50.928;7.084;2022-09-01T03:17:09;1.65;;;1.55;;
37559;SDS011;23398;50.928;7.084;2022-09-01T03:19:36;1.60;;;1.50;;
37559;SDS011;23398;50.928;7.084;2022-09-01T03:22:05;1.50;;;1.40;;
37559;SDS011;23398;50.928;7.084;2022-09-01T03:24:31;1.67;;;1.50;;
37559;SDS011;23398;50.928;7.084;2022-09-01T03:26:57;1.65;;;1.50;;
37559;SDS011;23398;50.928;7.084;2022-09-01T03:29:22;2.00;;;1.67;;
37559;SDS011;23398;50.928;7.084;2022-09-01T03:31:48;1.67;;;1.38;;
37559;SDS011;23398;50.928;7.084;2022-09-01T03:34:14;1.85;;;1.25;;
37559;SDS011;23398;50.928;7.084;2022-09-01T03:36:42;2.15;;;1.30;;
37559;SDS011;23398;50.928;7.084;2022-09-01T03:39:14;2.72;;;1.40;;
37559;SDS011;23398;50.928;7.084;2022-09-01T03:41:42;1.40;;;1.30;;
37559;SDS011;23398;50.928;7.084;2022-09-01T03:44:08;1.60;;;1.30;;
37559;SDS011;23398;50.928;7.084;2022-09-01T03:46:36;2.35;;;1.60;;
37559;SDS011;23398;50.928;7.084;2022-09-01T03:49:04;2.13;;;1.45;;
37559;SDS011;23398;50.928;7.084;2022-09-01T03:51:39;1.50;;;1.40;;
37559;SDS011;23398;50.928;7.084;2022-09-01T03:54:07;1.42;;;1.33;;
37559;SDS011;23398;50.928;7.084;2022-09-01T03:56:32;2.80;;;1.45;;
37559;SDS011;23398;50.928;7.084;2022-09-01T03:58:58;1.92;;;1.45;;
37559;SDS011;23398;50.928;7.084;2022-09-01T04:01:25;2.05;;;1.50;;
37559;SDS011;23398;50.928;7.084;2022-09-01T04:03:52;1.83;;;1.63;;
37559;SDS011;23398;50.928;7.084;2022-09-01T04:06:18;1.40;;;1.20;;
37559;SDS011;23398;50.928;7.084;2022-09-01T04:08:45;1.40;;;1.30;;
37559;SDS011;23398;50.928;7.084;2022-09-01T04:11:13;2.65;;;1.63;;
37559;SDS011;23398;50.928;7.084;2022-09-01T04:13:42;1.70;;;1.50;;
37559;SDS011;23398;50.928;7.084;2022-09-01T04:16:15;1.83;;;1.38;;
37559;SDS011;23398;50.928;7.084;2022-09-01T04:19:02;2.67;;;1.25;;
37559;SDS011;23398;50.928;7.084;2022-09-01T04:21:39;2.33;;;1.60;;
37559;SDS011;23398;50.928;7.084;2022-09-01T04:24:07;2.03;;;1.77;;
37559;SDS011;23398;50.928;7.084;2022-09-01T04:26:33;2.95;;;2.13;;
37559;SDS011;23398;50.928;7.084;2022-09-01T04:28:59;2.35;;;2.15;;
37559;SDS011;23398;50.928;7.084;2022-09-01T04:31:25;3.33;;;1.85;;
37559;SDS011;23398;50.928;7.084;2022-09-01T04:33:51;2.53;;;2.20;;
37559;SDS011;23398;50.928;7.084;2022-09-01T04:36:19;3.63;;;2.85;;
37559;SDS011;23398;50.928;7.084;2022-09-01T04:38:46;4.22;;;2.80;;
37559;SDS011;23398;50.928;7.084;2022-09-01T04:41:18;2.50;;;1.95;;
37559;SDS011;23398;50.928;7.084;2022-09-01T04:43:45;1.70;;;1.55;;
37559;SDS011;23398;50.928;7.084;2022-09-01T04:46:15;1.70;;;1.60;;
37559;SDS011;23398;50.928;7.084;2022-09-01T04:48:42;1.58;;;1.48;;
37559;SDS011;23398;50.928;7.084;2022-09-01T04:51:09;1.63;;;1.52;;
37559;SDS011;23398;50.928;7.084;2022-09-01T04:53:36;1.88;;;1.60;;
37559;SDS011;23398;50.928;7.084;2022-09-01T04:56:04;1.83;;;1.40;;
37559;SDS011;23398;50.928;7.084;2022-09-01T04:58:32;3.17;;;1.75;;
37559;SDS011;23398;50.928;7.084;2022-09-01T05:00:58;1.60;;;1.50;;
37559;SDS011;23398;50.928;7.084;2022-09-01T05:03:24;1.67;;;1.52;;
37559;SDS011;23398;50.928;7.084;2022-09-01T05:05:51;1.80;;;1.50;;
37559;SDS011;23398;50.928;7.084;2022-09-01T05:08:19;1.75;;;1.55;;
37559;SDS011;23398;50.928;7.084;2022-09-01T05:10:47;1.85;;;1.27;;
37559;SDS011;23398;50.928;7.084;2022-09-01T05:13:16;1.63;;;1.52;;
37559;SDS011;23398;50.928;7.084;2022-09-01T05:15:44;1.60;;;1.50;;
37559;SDS011;23398;50.928;7.084;2022-09-01T05:18:14;2.38;;;1.58;;
37559;SDS011;23398;50.928;7.084;2022-09-01T05:20:47;1.70;;;1.60;;
37559;SDS011;23398;50.928;7.084;2022-09-01T05:23:14;1.50;;;1.40;;
37559;SDS011;23398;50.928;7.084;2022-09-01T05:25:43;1.50;;;1.40;;
37559;SDS011;23398;50.928;7.084;2022-09-01T05:28:10;1.63;;;1.45;;
37559;SDS011;23398;50.928;7.084;2022-09-01T05:30:38;1.52;;;1.42;;
37559;SDS011;23398;50.928;7.084;2022-09-01T05:33:05;2.22;;;1.50;;
37559;SDS011;23398;50.928;7.084;2022-09-01T05:35:40;1.98;;;1.30;;
37559;SDS011;23398;50.928;7.084;2022-09-01T05:38:16;2.58;;;1.45;;
37559;SDS011;23398;50.928;7.084;2022-09-01T05:40:43;1.70;;;1.60;;
37559;SDS011;23398;50.928;7.084;2022-09-01T05:43:18;1.98;;;1.70;;
37559;SDS011;23398;50.928;7.084;2022-09-01T05:45:45;2.08;;;1.60;;
37559;SDS011;23398;50.928;7.084;2022-09-01T05:48:12;1.63;;;1.52;;
37559;SDS011;23398;50.928;7.084;2022-09-01T05:50:44;2.45;;;1.45;;
37559;SDS011;23398;50.928;7.084;2022-09-01T05:53:11;2.03;;;1.63;;
37559;SDS011;23398;50.928;7.084;2022-09-01T05:55:45;1.65;;;1.40;;
37559;SDS011;23398;50.928;7.084;2022-09-01T05:58:13;2.33;;;2.10;;
37559;SDS011;23398;50.928;7.084;2022-09-01T06:00:41;2.88;;;1.50;;
37559;SDS011;23398;50.928;7.084;2022-09-01T06:03:08;3.25;;;1.70;;
37559;SDS011;23398;50.928;7.084;2022-09-01T06:05:35;1.70;;;1.50;;
37559;SDS011;23398;50.928;7.084;2022-09-01T06:08:02;1.80;;;1.70;;
37559;SDS011;23398;50.928;7.084;2022-09-01T06:10:29;2.03;;;1.75;;
37559;SDS011;23398;50.928;7.084;2022-09-01T06:12:56;2.22;;;1.60;;
37559;SDS011;23398;50.928;7.084;2022-09-01T06:15:26;2.42;;;1.70;;
37559;SDS011;23398;50.928;7.084;2022-09-01T06:17:53;2.20;;;1.77;;
37559;SDS011;23398;50.928;7.084;2022-09-01T06:20:19;2.22;;;1.50;;
37559;SDS011;23398;50.928;7.084;2022-09-01T06:22:46;1.77;;;1.60;;
37559;SDS011;23398;50.928;7.084;2022-09-01T06:25:13;1.63;;;1.52;;
37559;SDS011;23398;50.928;7.084;2022-09-01T06:27:42;3.63;;;1.77;;
37559;SDS011;23398;50.928;7.084;2022-09-01T06:30:09;2.25;;;1.80;;
37559;SDS011;23398;50.928;7.084;2022-09-01T06:32:41;2.92;;;1.60;;
37559;SDS011;23398;50.928;7.084;2022-09-01T06:35:11;2.85;;;1.80;;
37559;SDS011;23398;50.928;7.084;2022-09-01T06:37:39;1.90;;;1.48;;
37559;SDS011;23398;50.928;7.084;2022-09-01T06:40:08;1.50;;;1.17;;
37559;SDS011;23398;50.928;7.084;2022-09-01T06:42:47;1.73;;;1.08;;
37559;SDS011;23398;50.928;7.084;2022-09-01T06:45:16;1.63;;;1.20;;
37559;SDS011;23398;50.928;7.084;2022-09-01T06:47:44;1.80;;;1.02;;
37559;SDS011;23398;50.928;7.084;2022-09-01T06:50:11;2.63;;;1.30;;
37559;SDS011;23398;50.928;7.084;2022-09-01T06:52:39;1.40;;;1.23;;
37559;SDS011;23398;50.928;7.084;2022-09-01T06:55:12;1.30;;;1.20;;
37559;SDS011;23398;50.928;7.084;2022-09-01T06:57:39;2.65;;;1.20;;
37559;SDS011;23398;50.928;7.084;2022-09-01T07:00:07;2.45;;;1.20;;
37559;SDS011;23398;50.928;7.084;2022-09-01T07:02:45;1.25;;;1.10;;
37559;SDS011;23398;50.928;7.084;2022-09-01T07:05:12;2.05;;;1.20;;
37559;SDS011;23398;50.928;7.084;2022-09-01T07:07:50;1.27;;;1.17;;
37559;SDS011;23398;50.928;7.084;2022-09-01T07:10:20;1.67;;;1.10;;
37559;SDS011;23398;50.928;7.084;2022-09-01T07:12:54;1.20;;;1.00;;
37559;SDS011;23398;50.928;7.084;2022-09-01T07:15:21;1.00;;;0.90;;
37559;SDS011;23398;50.928;7.084;2022-09-01T07:17:52;2.47;;;1.00;;
37559;SDS011;23398;50.928;7.084;2022-09-01T07:20:21;1.30;;;1.20;;
37559;SDS011;23398;50.928;7.084;2022-09-01T07:22:50;1.50;;;0.90;;
37559;SDS011;23398;50.928;7.084;2022-09-01T07:25:17;1.48;;;1.00;;
37559;SDS011;23398;50.928;7.084;2022-09-01T07:27:44;1.20;;;1.10;;
37559;SDS011;23398;50.928;7.084;2022-09-01T07:30:13;2.55;;;1.13;;
37559;SDS011;23398;50.928;7.084;2022-09-01T07:32:40;1.25;;;1.05;;
37559;SDS011;23398;50.928;7.084;2022-09-01T07:35:09;1.92;;;1.20;;
37559;SDS011;23398;50.928;7.084;2022-09-01T07:37:36;2.17;;;1.10;;
37559;SDS011;23398;50.928;7.084;2022-09-01T07:40:05;1.42;;;1.10;;
37559;SDS011;23398;50.928;7.084;2022-09-01T07:42:34;1.27;;;1.10;;
37559;SDS011;23398;50.928;7.084;2022-09-01T07:45:03;1.15;;;1.05;;
37559;SDS011;23398;50.928;7.084;2022-09-01T07:47:35;2.30;;;1.00;;
37559;SDS011;23398;50.928;7.084;2022-09-01T07:50:05;1.48;;;1.23;;
37559;SDS011;23398;50.928;7.084;2022-09-01T07:52:35;1.40;;;1.15;;
37559;SDS011;23398;50.928;7.084;2022-09-01T07:55:10;1.40;;;1.10;;
37559;SDS011;23398;50.928;7.084;2022-09-01T07:57:39;1.80;;;1.10;;
37559;SDS011;23398;50.928;7.084;2022-09-01T08:00:07;1.20;;;1.10;;
37559;SDS011;23398;50.928;7.084;2022-09-01T08:02:35;1.20;;;1.10;;
37559;SDS011;23398;50.928;7.084;2022-09-01T08:05:03;1.45;;;1.20;;
37559;SDS011;23398;50.928;7.084;2022-09-01T08:07:33;1.38;;;1.20;;
37559;SDS011;23398;50.928;7.084;2022-09-01T08:10:02;1.40;;;1.30;;
37559;SDS011;23398;50.928;7.084;2022-09-01T08:12:28;2.95;;;1.20;;
37559;SDS011;23398;50.928;7.084;2022-09-01T08:14:55;1.92;;;1.10;;
37559;SDS011;23398;50.928;7.084;2022-09-01T08:17:20;1.42;;;1.30;;
37559;SDS011;23398;50.928;7.084;2022-09-01T08:19:46;2.13;;;1.10;;
37559;SDS011;23398;50.928;7.084;2022-09-01T08:22:13;1.25;;;1.10;;
37559;SDS011;23398;50.928;7.084;2022-09-01T08:24:39;1.73;;;1.20;;
37559;SDS011;23398;50.928;7.084;2022-09-01T08:27:04;1.65;;;1.30;;
37559;SDS011;23398;50.928;7.084;2022-09-01T08:29:30;2.13;;;1.13;;
37559;SDS011;23398;50.928;7.084;2022-09-01T08:31:56;2.80;;;1.25;;
37559;SDS011;23398;50.928;7.084;2022-09-01T08:34:23;3.55;;;1.67;;
37559;SDS011;23398;50.928;7.084;2022-09-01T08:36:50;1.70;;;1.30;;
37559;SDS011;23398;50.928;7.084;2022-09-01T08:39:16;1.40;;;1.30;;
37559;SDS011;23398;50.928;7.084;2022-09-01T08:47:11;2.20;;;1.27;;
37559;SDS011;23398;50.928;7.084;2022-09-01T08:49:40;1.55;;;1.45;;
37559;SDS011;23398;50.928;7.084;2022-09-01T08:54:41;1.40;;;1.30;;
37559;SDS011;23398;50.928;7.084;2022-09-01T08:57:33;2.08;;;1.80;;
37559;SDS011;23398;50.928;7.084;2022-09-01T09:00:04;2.70;;;1.58;;
37559;SDS011;23398;50.928;7.084;2022-09-01T09:07:53;1.40;;;1.30;;
37559;SDS011;23398;50.928;7.084;2022-09-01T09:10:28;2.47;;;1.33;;
37559;SDS011;23398;50.928;7.084;2022-09-01T09:16:12;1.42;;;1.30;;
37559;SDS011;23398;50.928;7.084;2022-09-01T09:18:43;1.40;;;1.30;;
37559;SDS011;23398;50.928;7.084;2022-09-01T09:21:17;1.40;;;1.30;;
37559;SDS011;23398;50.928;7.084;2022-09-01T09:23:49;2.53;;;1.50;;
37559;SDS011;23398;50.928;7.084;2022-09-01T09:26:22;1.65;;;1.35;;
37559;SDS011;23398;50.928;7.084;2022-09-01T09:28:48;1.40;;;1.30;;
37559;SDS011;23398;50.928;7.084;2022-09-01T09:31:24;1.63;;;1.30;;
37559;SDS011;23398;50.928;7.084;2022-09-01T09:34:15;1.02;;;1.02;;
37559;SDS011;23398;50.928;7.084;2022-09-01T09:36:52;1.10;;;1.00;;
37559;SDS011;23398;50.928;7.084;2022-09-01T09:39:18;1.13;;;1.02;;
37559;SDS011;23398;50.928;7.084;2022-09-01T09:42:00;3.28;;;1.17;;
37559;SDS011;23398;50.928;7.084;2022-09-01T09:44:31;1.30;;;1.00;;
37559;SDS011;23398;50.928;7.084;2022-09-01T09:46:57;1.33;;;1.10;;
37559;SDS011;23398;50.928;7.084;2022-09-01T09:49:30;1.45;;;1.15;;
37559;SDS011;23398;50.928;7.084;2022-09-01T09:54:26;2.03;;;1.10;;
37559;SDS011;23398;50.928;7.084;2022-09-01T09:59:43;1.20;;;1.10;;
37559;SDS011;23398;50.928;7.084;2022-09-01T10:04:50;1.20;;;1.10;;
37559;SDS011;23398;50.928;7.084;2022-09-01T10:07:33;1.52;;;1.08;;
37559;SDS011;23398;50.928;7.084;2022-09-01T10:10:04;1.38;;;1.10;;
37559;SDS011;23398;50.928;7.084;2022-09-01T10:12:48;1.35;;;1.10;;
37559;SDS011;23398;50.928;7.084;2022-09-01T10:15:15;1.10;;;1.00;;
37559;SDS011;23398;50.928;7.084;2022-09-01T10:17:44;1.08;;;1.00;;
37559;SDS011;23398;50.928;7.084;2022-09-01T10:22:45;1.60;;;1.15;;
37559;SDS011;23398;50.928;7.084;2022-09-01T10:25:13;1.85;;;1.10;;
37559;SDS011;23398;50.928;7.084;2022-09-01T10:27:44;1.58;;;1.00;;
37559;SDS011;23398;50.928;7.084;2022-09-01T10:30:18;1.30;;;1.00;;
37559;SDS011;23398;50.928;7.084;2022-09-01T10:32:46;1.13;;;1.02;;
37559;SDS011;23398;50.928;7.084;2022-09-01T10:35:16;1.30;;;1.20;;
37559;SDS011;23398;50.928;7.084;2022-09-01T10:37:48;1.25;;;1.15;;
37559;SDS011;23398;50.928;7.084;2022-09-01T10:42:54;1.80;;;1.20;;
37559;SDS011;23398;50.928;7.084;2022-09-01T10:50:54;1.33;;;1.20;;
37559;SDS011;23398;50.928;7.084;2022-09-01T10:53:43;3.47;;;1.20;;
37559;SDS011;23398;50.928;7.084;2022-09-01T10:56:12;1.40;;;1.23;;
37559;SDS011;23398;50.928;7.084;2022-09-01T11:09:05;1.27;;;1.10;;
37559;SDS011;23398;50.928;7.084;2022-09-01T11:11:54;1.35;;;1.20;;
37559;SDS011;23398;50.928;7.084;2022-09-01T11:17:22;1.65;;;1.10;;
37559;SDS011;23398;50.928;7.084;2022-09-01T11:19:53;1.40;;;1.30;;
37559;SDS011;23398;50.928;7.084;2022-09-01T11:25:08;1.88;;;1.20;;
37559;SDS011;23398;50.928;7.084;2022-09-01T11:27:56;2.00;;;1.27;;
37559;SDS011;23398;50.928;7.084;2022-09-01T11:31:00;1.30;;;1.20;;
37559;SDS011;23398;50.928;7.084;2022-09-01T11:41:35;1.30;;;1.20;;
37559;SDS011;23398;50.928;7.084;2022-09-01T11:44:14;1.30;;;1.20;;
37559;SDS011;23398;50.928;7.084;2022-09-01T11:46:48;1.55;;;1.25;;
37559;SDS011;23398;50.928;7.084;2022-09-01T11:49:26;1.42;;;1.17;;
37559;SDS011;23398;50.928;7.084;2022-09-01T11:52:04;2.78;;;1.33;;
37559;SDS011;23398;50.928;7.084;2022-09-01T11:54:40;1.35;;;1.25;;
37559;SDS011;23398;50.928;7.084;2022-09-01T12:00:00;2.42;;;1.30;;
37559;SDS011;23398;50.928;7.084;2022-09-01T12:02:47;2.22;;;1.38;;
37559;SDS011;23398;50.928;7.084;2022-09-01T12:07:59;2.88;;;1.40;;
37559;SDS011;23398;50.928;7.084;2022-09-01T12:15:35;1.77;;;1.50;;
37559;SDS011;23398;50.928;7.084;2022-09-01T12:20:46;1.40;;;1.30;;
37559;SDS011;23398;50.928;7.084;2022-09-01T12:26:04;1.50;;;1.40;;
37559;SDS011;23398;50.928;7.084;2022-09-01T12:28:38;1.50;;;1.40;;
37559;SDS011;23398;50.928;7.084;2022-09-01T12:31:06;1.67;;;1.30;;
37559;SDS011;23398;50.928;7.084;2022-09-01T12:33:37;1.98;;;1.38;;
37559;SDS011;23398;50.928;7.084;2022-09-01T12:36:23;1.40;;;1.30;;
37559;SDS011;23398;50.928;7.084;2022-09-01T12:39:24;1.50;;;1.40;;
37559;SDS011;23398;50.928;7.084;2022-09-01T12:41:43;2.63;;;1.30;;
37559;SDS011;23398;50.928;7.084;2022-09-01T12:46:59;1.55;;;1.40;;
37559;SDS011;23398;50.928;7.084;2022-09-01T12:55:18;3.05;;;1.40;;
37559;SDS011;23398;50.928;7.084;2022-09-01T12:57:40;1.42;;;1.33;;
37559;SDS011;23398;50.928;7.084;2022-09-01T13:00:18;2.10;;;1.50;;
37559;SDS011;23398;50.928;7.084;2022-09-01T13:02:51;1.88;;;1.48;;
37559;SDS011;23398;50.928;7.084;2022-09-01T13:06:00;1.58;;;1.48;;
37559;SDS011;23398;50.928;7.084;2022-09-01T13:08:30;1.58;;;1.40;;
37559;SDS011;23398;50.928;7.084;2022-09-01T13:11:00;2.55;;;1.70;;
37559;SDS011;23398;50.928;7.084;2022-09-01T13:13:28;1.65;;;1.55;;
37559;SDS011;23398;50.928;7.084;2022-09-01T13:15:55;1.70;;;1.60;;
37559;SDS011;23398;50.928;7.084;2022-09-01T13:18:26;1.65;;;1.50;;
37559;SDS011;23398;50.928;7.084;2022-09-01T13:20:53;1.65;;;1.48;;
37559;SDS011;23398;50.928;7.084;2022-09-01T13:23:20;1.58;;;1.42;;
37559;SDS011;23398;50.928;7.084;2022-09-01T13:25:46;2.17;;;1.80;;
37559;SDS011;23398;50.928;7.084;2022-09-01T13:28:13;2.78;;;1.60;;
37559;SDS011;23398;50.928;7.084;2022-09-01T13:30:40;1.73;;;1.63;;
37559;SDS011;23398;50.928;7.084;2022-09-01T13:33:07;2.67;;;1.45;;
37559;SDS011;23398;50.928;7.084;2022-09-01T13:35:36;1.63;;;1.52;;
37559;SDS011;23398;50.928;7.084;2022-09-01T13:38:02;1.35;;;1.25;;
37559;SDS011;23398;50.928;7.084;2022-09-01T13:40:28;1.60;;;1.50;;
37559;SDS011;23398;50.928;7.084;2022-09-01T13:42:53;1.98;;;1.65;;
37559;SDS011;23398;50.928;7.084;2022-09-01T13:45:21;2.10;;;1.52;;
37559;SDS011;23398;50.928;7.084;2022-09-01T13:47:51;2.33;;;1.67;;
37559;SDS011;23398;50.928;7.084;2022-09-01T13:50:18;1.65;;;1.48;;
37559;SDS011;23398;50.928;7.084;2022-09-01T13:52:47;2.85;;;1.63;;
37559;SDS011;23398;50.928;7.084;2022-09-01T13:55:16;5.63;;;1.70;;
37559;SDS011;23398;50.928;7.084;2022-09-01T13:57:44;1.60;;;1.50;;
37559;SDS011;23398;50.928;7.084;2022-09-01T14:00:11;1.63;;;1.50;;
37559;SDS011;23398;50.928;7.084;2022-09-01T14:02:41;2.08;;;1.75;;
37559;SDS011;23398;50.928;7.084;2022-09-01T14:05:15;1.95;;;1.60;;
37559;SDS011;23398;50.928;7.084;2022-09-01T14:07:42;2.30;;;1.73;;
37559;SDS011;23398;50.928;7.084;2022-09-01T14:10:08;2.75;;;1.70;;
37559;SDS011;23398;50.928;7.084;2022-09-01T14:12:33;1.67;;;1.40;;
37559;SDS011;23398;50.928;7.084;2022-09-01T14:14:59;1.83;;;1.60;;
37559;SDS011;23398;50.928;7.084;2022-09-01T14:17:25;1.60;;;1.50;;
37559;SDS011;23398;50.928;7.084;2022-09-01T14:19:51;1.55;;;1.45;;
37559;SDS011;23398;50.928;7.084;2022-09-01T14:22:16;1.60;;;1.50;;
37559;SDS011;23398;50.928;7.084;2022-09-01T14:24:42;1.63;;;1.52;;
37559;SDS011;23398;50.928;7.084;2022-09-01T14:27:08;1.38;;;1.27;;
37559;SDS011;23398;50.928;7.084;2022-09-01T14:29:33;3.00;;;2.00;;
37559;SDS011;23398;50.928;7.084;2022-09-01T14:32:00;2.35;;;1.60;;
37559;SDS011;23398;50.928;7.084;2022-09-01T14:34:26;1.52;;;1.42;;
37559;SDS011;23398;50.928;7.084;2022-09-01T14:36:52;1.63;;;1.50;;
37559;SDS011;23398;50.928;7.084;2022-09-01T14:39:20;1.75;;;1.65;;
37559;SDS011;23398;50.928;7.084;2022-09-01T14:41:46;1.67;;;1.38;;
37559;SDS011;23398;50.928;7.084;2022-09-01T14:44:11;1.75;;;1.65;;
37559;SDS011;23398;50.928;7.084;2022-09-01T14:46:37;1.50;;;1.40;;
37559;SDS011;23398;50.928;7.084;2022-09-01T14:49:03;1.60;;;1.50;;
37559;SDS011;23398;50.928;7.084;2022-09-01T14:51:30;1.80;;;1.70;;
37559;SDS011;23398;50.928;7.084;2022-09-01T14:53:56;1.52;;;1.33;;
37559;SDS011;23398;50.928;7.084;2022-09-01T14:56:22;1.70;;;1.40;;
37559;SDS011;23398;50.928;7.084;2022-09-01T14:58:48;1.55;;;1.45;;
37559;SDS011;23398;50.928;7.084;2022-09-01T15:01:17;1.58;;;1.48;;
37559;SDS011;23398;50.928;7.084;2022-09-01T15:03:45;1.50;;;1.40;;
37559;SDS011;23398;50.928;7.084;2022-09-01T15:06:12;1.90;;;1.35;;
37559;SDS011;23398;50.928;7.084;2022-09-01T15:08:39;1.38;;;1.27;;
37559;SDS011;23398;50.928;7.084;2022-09-01T15:11:07;1.60;;;1.50;;
37559;SDS011;23398;50.928;7.084;2022-09-01T15:13:34;1.40;;;1.25;;
37559;SDS011;23398;50.928;7.084;2022-09-01T15:16:00;1.60;;;1.45;;
37559;SDS011;23398;50.928;7.084;2022-09-01T15:18:25;1.30;;;1.20;;
37559;SDS011;23398;50.928;7.084;2022-09-01T15:20:51;1.95;;;1.20;;
37559;SDS011;23398;50.928;7.084;2022-09-01T15:23:19;1.23;;;1.13;;
37559;SDS011;23398;50.928;7.084;2022-09-01T15:25:46;1.70;;;1.55;;
37559;SDS011;23398;50.928;7.084;2022-09-01T15:28:14;1.42;;;1.33;;
37559;SDS011;23398;50.928;7.084;2022-09-01T15:30:40;1.30;;;1.20;;
37559;SDS011;23398;50.928;7.084;2022-09-01T15:33:07;1.67;;;1.50;;
37559;SDS011;23398;50.928;7.084;2022-09-01T15:35:34;2.50;;;1.40;;
37559;SDS011;23398;50.928;7.084;2022-09-01T15:38:00;3.63;;;1.33;;
37559;SDS011;23398;50.928;7.084;2022-09-01T15:40:25;1.50;;;1.40;;
37559;SDS011;23398;50.928;7.084;2022-09-01T15:42:52;1.50;;;1.38;;
37559;SDS011;23398;50.928;7.084;2022-09-01T15:45:19;1.95;;;1.33;;
37559;SDS011;23398;50.928;7.084;2022-09-01T15:47:47;1.50;;;1.40;;
37559;SDS011;23398;50.928;7.084;2022-09-01T15:50:13;1.92;;;1.30;;
37559;SDS011;23398;50.928;7.084;2022-09-01T15:52:51;2.00;;;1.20;;
37559;SDS011;23398;50.928;7.084;2022-09-01T15:55:19;2.55;;;1.40;;
37559;SDS011;23398;50.928;7.084;2022-09-01T15:57:50;1.40;;;1.30;;
37559;SDS011;23398;50.928;7.084;2022-09-01T16:00:18;1.63;;;1.48;;
37559;SDS011;23398;50.928;7.084;2022-09-01T16:02:46;1.60;;;1.33;;
37559;SDS011;23398;50.928;7.084;2022-09-01T16:05:12;1.33;;;1.23;;
37559;SDS011;23398;50.928;7.084;2022-09-01T16:07:38;2.33;;;1.30;;
37559;SDS011;23398;50.928;7.084;2022-09-01T16:10:05;1.40;;;1.20;;
37559;SDS011;23398;50.928;7.084;2022-09-01T16:12:35;2.35;;;1.30;;
37559;SDS011;23398;50.928;7.084;2022-09-01T16:15:01;1.50;;;1.30;;
37559;SDS011;23398;50.928;7.084;2022-09-01T16:17:41;2.35;;;1.40;;
37559;SDS011;23398;50.928;7.084;2022-09-01T16:20:23;1.30;;;1.20;;
37559;SDS011;23398;50.928;7.084;2022-09-01T16:22:52;1.45;;;1.30;;
37559;SDS011;23398;50.928;7.084;2022-09-01T16:25:28;1.35;;;1.25;;